createdAt,value
2019-01-08T00:00:26.079Z,1007.22
2019-01-08T00:01:26.031Z,1007.18
2019-01-08T00:02:25.982Z,1007.11
2019-01-08T00:03:25.934Z,1007.04
2019-01-08T00:04:25.884Z,1007.05
2019-01-08T00:05:25.837Z,1007.05
2019-01-08T00:06:25.789Z,1007.01
2019-01-08T00:07:25.740Z,1006.99
2019-01-08T00:08:25.691Z,1006.90
2019-01-08T00:09:25.642Z,1006.96
2019-01-08T00:10:25.592Z,1007.00
2019-01-08T00:11:25.545Z,1006.90
2019-01-08T00:12:25.499Z,1006.88
2019-01-08T00:13:25.447Z,1006.89
2019-01-08T00:14:25.398Z,1006.89
2019-01-08T00:15:25.349Z,1006.85
2019-01-08T00:16:25.301Z,1006.80
2019-01-08T00:17:25.252Z,1006.81
2019-01-08T00:18:25.204Z,1006.80
2019-01-08T00:19:25.156Z,1006.77
2019-01-08T00:20:25.108Z,1006.70
2019-01-08T00:21:25.059Z,1006.65
2019-01-08T00:22:25.009Z,1006.66
2019-01-08T00:23:24.961Z,1006.63
2019-01-08T00:24:24.914Z,1006.60
2019-01-08T00:25:24.865Z,1006.53
2019-01-08T00:26:24.814Z,1006.49
2019-01-08T00:27:24.765Z,1006.47
2019-01-08T00:28:24.719Z,1006.44
2019-01-08T00:29:24.668Z,1006.40
2019-01-08T00:30:24.623Z,1006.45
2019-01-08T00:31:24.572Z,1006.45
2019-01-08T00:32:24.622Z,1006.31
2019-01-08T00:33:24.476Z,1006.34
2019-01-08T00:34:24.429Z,1006.30
2019-01-08T00:35:24.377Z,1006.27
2019-01-08T00:36:24.327Z,1006.28
2019-01-08T00:37:24.282Z,1006.29
2019-01-08T00:38:24.232Z,1006.27
2019-01-08T00:39:24.182Z,1006.14
2019-01-08T00:40:24.448Z,1006.23
2019-01-08T00:41:24.085Z,1006.18
2019-01-08T00:42:24.036Z,1006.09
2019-01-08T00:43:23.989Z,1006.11
2019-01-08T00:44:23.938Z,1006.08
2019-01-08T00:45:23.898Z,1006.01
2019-01-08T00:46:23.840Z,1006.00
2019-01-08T00:47:23.794Z,1006.02
2019-01-08T00:48:23.743Z,1006.01
2019-01-08T00:49:23.694Z,1005.95
2019-01-08T00:50:23.647Z,1005.92
2019-01-08T00:51:23.598Z,1005.87
2019-01-08T00:52:23.599Z,1005.90
2019-01-08T00:53:23.591Z,1005.90
2019-01-08T00:54:23.453Z,1005.86
2019-01-08T00:55:23.404Z,1005.84
2019-01-08T00:56:23.357Z,1005.83
2019-01-08T00:57:23.305Z,1005.82
2019-01-08T00:58:23.258Z,1005.77
2019-01-08T00:59:23.208Z,1005.71
2019-01-08T01:00:23.166Z,1005.70
2019-01-08T01:01:23.110Z,1005.71
2019-01-08T01:02:23.063Z,1005.72
2019-01-08T01:03:23.014Z,1005.71
2019-01-08T01:04:22.966Z,1005.68
2019-01-08T01:05:22.916Z,1005.57
2019-01-08T01:06:22.875Z,1005.54
2019-01-08T01:07:22.820Z,1005.53
2019-01-08T01:08:22.773Z,1005.52
2019-01-08T01:09:22.720Z,1005.53
2019-01-08T01:10:22.672Z,1005.55
2019-01-08T01:11:22.624Z,1005.52
2019-01-08T01:12:22.675Z,1005.45
2019-01-08T01:13:22.527Z,1005.40
2019-01-08T01:14:22.478Z,1005.34
2019-01-08T01:15:22.430Z,1005.28
2019-01-08T01:16:22.381Z,1005.25
2019-01-08T01:17:22.334Z,1005.30
2019-01-08T01:18:22.284Z,1005.26
2019-01-08T01:19:22.236Z,1005.22
2019-01-08T01:20:22.186Z,1005.18
2019-01-08T01:21:22.141Z,1005.18
2019-01-08T01:22:22.088Z,1005.11
2019-01-08T01:23:22.040Z,1005.10
2019-01-08T01:24:21.992Z,1005.00
2019-01-08T01:25:21.943Z,1004.99
2019-01-08T01:26:21.896Z,1004.93
2019-01-08T01:27:21.845Z,1004.93
2019-01-08T01:28:21.797Z,1004.85
2019-01-08T01:29:21.748Z,1004.89
2019-01-08T01:30:21.701Z,1004.93
2019-01-08T01:31:21.654Z,1004.95
2019-01-08T01:32:21.602Z,1004.88
2019-01-08T01:33:21.557Z,1004.86
2019-01-08T01:34:21.505Z,1004.79
2019-01-08T01:35:21.457Z,1004.76
2019-01-08T01:36:21.406Z,1004.78
2019-01-08T01:37:21.359Z,1004.71
2019-01-08T01:38:21.310Z,1004.76
2019-01-08T01:39:21.265Z,1004.76
2019-01-08T01:40:21.213Z,1004.66
2019-01-08T01:41:21.164Z,1004.70
2019-01-08T01:42:21.119Z,1004.62
2019-01-08T01:43:21.067Z,1004.62
2019-01-08T01:44:21.018Z,1004.55
2019-01-08T01:45:20.969Z,1004.54
2019-01-08T01:46:20.921Z,1004.51
2019-01-08T01:47:20.873Z,1004.46
2019-01-08T01:48:20.823Z,1004.44
2019-01-08T01:49:20.775Z,1004.40
2019-01-08T01:50:20.725Z,1004.41
2019-01-08T01:51:20.684Z,1004.33
2019-01-08T01:52:20.677Z,1004.35
2019-01-08T01:53:20.581Z,1004.29
2019-01-08T01:54:20.582Z,1004.35
2019-01-08T01:55:20.484Z,1004.24
2019-01-08T01:56:20.434Z,1004.23
2019-01-08T01:57:20.702Z,1004.23
2019-01-08T01:58:20.337Z,1004.16
2019-01-08T01:59:20.287Z,1004.14
2019-01-08T02:00:20.239Z,1004.09
2019-01-08T02:01:20.191Z,1004.08
2019-01-08T02:02:20.141Z,1004.03
2019-01-08T02:03:20.093Z,1003.99
2019-01-08T02:04:20.044Z,1004.01
2019-01-08T02:05:19.997Z,1004.06
2019-01-08T02:06:19.947Z,1004.07
2019-01-08T02:07:19.899Z,1004.01
2019-01-08T02:08:19.849Z,1004.01
2019-01-08T02:09:19.803Z,1004.02
2019-01-08T02:10:19.755Z,1003.98
2019-01-08T02:11:19.704Z,1003.97
2019-01-08T02:12:19.657Z,1003.92
2019-01-08T02:13:19.607Z,1003.90
2019-01-08T02:14:19.559Z,1003.85
2019-01-08T02:15:19.509Z,1003.87
2019-01-08T02:16:19.460Z,1003.79
2019-01-08T02:17:19.411Z,1003.78
2019-01-08T02:18:19.362Z,1003.79
2019-01-08T02:19:19.314Z,1003.77
2019-01-08T02:20:19.265Z,1003.83
2019-01-08T02:21:19.217Z,1003.80
2019-01-08T02:22:19.168Z,1003.85
2019-01-08T02:23:19.120Z,1003.84
2019-01-08T02:24:19.070Z,1003.82
2019-01-08T02:25:19.021Z,1003.84
2019-01-08T02:26:18.973Z,1003.77
2019-01-08T02:27:18.927Z,1003.70
2019-01-08T02:28:18.875Z,1003.63
2019-01-08T02:29:18.827Z,1003.63
2019-01-08T02:30:18.780Z,1003.66
2019-01-08T02:31:18.731Z,1003.66
2019-01-08T02:32:18.681Z,1003.66
2019-01-08T02:33:18.632Z,1003.56
2019-01-08T02:34:18.583Z,1003.61
2019-01-08T02:35:18.536Z,1003.55
2019-01-08T02:36:18.486Z,1003.55
2019-01-08T02:37:18.439Z,1003.55
2019-01-08T02:38:18.389Z,1003.54
2019-01-08T02:39:18.342Z,1003.50
2019-01-08T02:40:18.291Z,1003.57
2019-01-08T02:41:18.359Z,1003.53
2019-01-08T02:42:18.195Z,1003.56
2019-01-08T02:43:18.147Z,1003.48
2019-01-08T02:44:18.176Z,1003.48
2019-01-08T02:45:18.048Z,1003.46
2019-01-08T02:46:18.076Z,1003.35
2019-01-08T02:47:17.951Z,1003.36
2019-01-08T02:48:17.903Z,1003.31
2019-01-08T02:49:17.853Z,1003.28
2019-01-08T02:50:17.805Z,1003.29
2019-01-08T02:51:17.758Z,1003.30
2019-01-08T02:52:17.706Z,1003.24
2019-01-08T02:53:17.658Z,1003.17
2019-01-08T02:54:17.622Z,1003.20
2019-01-08T02:55:17.611Z,1003.18
2019-01-08T02:56:17.521Z,1003.15
2019-01-08T02:57:17.463Z,1003.19
2019-01-08T02:58:17.417Z,1003.14
2019-01-08T02:59:24.921Z,1003.03
2019-01-08T03:00:17.321Z,1003.03
2019-01-08T03:01:17.268Z,1003.03
2019-01-08T03:02:17.221Z,1003.00
2019-01-08T03:03:17.183Z,1002.98
2019-01-08T03:04:17.122Z,1002.89
2019-01-08T03:05:17.073Z,1002.92
2019-01-08T03:06:17.025Z,1002.84
2019-01-08T03:07:16.976Z,1002.81
2019-01-08T03:08:16.926Z,1002.81
2019-01-08T03:09:17.195Z,1002.78
2019-01-08T03:10:17.152Z,1002.63
2019-01-08T03:11:16.781Z,1002.62
2019-01-08T03:12:16.732Z,1002.59
2019-01-08T03:13:16.689Z,1002.56
2019-01-08T03:14:16.635Z,1002.61
2019-01-08T03:15:16.586Z,1002.64
2019-01-08T03:16:16.537Z,1002.60
2019-01-08T03:17:16.488Z,1002.61
2019-01-08T03:18:16.440Z,1002.50
2019-01-08T03:19:16.390Z,1002.47
2019-01-08T03:20:16.341Z,1002.40
2019-01-08T03:21:16.293Z,1002.42
2019-01-08T03:22:16.244Z,1002.31
2019-01-08T03:23:16.199Z,1002.30
2019-01-08T03:24:16.147Z,1002.25
2019-01-08T03:25:16.100Z,1002.28
2019-01-08T03:26:16.052Z,1002.24
2019-01-08T03:27:16.005Z,1002.29
2019-01-08T03:28:15.951Z,1002.24
2019-01-08T03:29:15.905Z,1002.20
2019-01-08T03:30:15.855Z,1002.22
2019-01-08T03:31:15.807Z,1002.13
2019-01-08T03:32:15.761Z,1002.16
2019-01-08T03:33:15.707Z,1002.15
2019-01-08T03:34:15.659Z,1002.14
2019-01-08T03:35:15.611Z,1002.08
2019-01-08T03:36:15.562Z,1002.11
2019-01-08T03:37:15.515Z,1002.17
2019-01-08T03:38:15.466Z,1002.14
2019-01-08T03:39:15.416Z,1002.05
2019-01-08T03:40:15.367Z,1002.03
2019-01-08T03:41:15.318Z,1001.97
2019-01-08T03:42:15.270Z,1001.99
2019-01-08T03:43:15.221Z,1002.00
2019-01-08T03:44:15.171Z,1001.95
2019-01-08T03:45:15.125Z,1001.96
2019-01-08T03:46:15.076Z,1001.99
2019-01-08T03:47:15.026Z,1001.97
2019-01-08T03:48:14.977Z,1001.91
2019-01-08T03:49:14.929Z,1001.85
2019-01-08T03:50:14.880Z,1001.86
2019-01-08T03:51:14.832Z,1001.88
2019-01-08T03:52:14.782Z,1001.79
2019-01-08T03:53:14.734Z,1001.75
2019-01-08T03:54:14.684Z,1001.71
2019-01-08T03:55:14.637Z,1001.66
2019-01-08T03:56:14.613Z,1001.66
2019-01-08T03:57:14.589Z,1001.64
2019-01-08T03:58:14.490Z,1001.58
2019-01-08T03:59:14.441Z,1001.59
2019-01-08T04:00:14.392Z,1001.60
2019-01-08T04:01:14.351Z,1001.58
2019-01-08T04:02:14.295Z,1001.56
2019-01-08T04:03:14.247Z,1001.56
2019-01-08T04:04:14.197Z,1001.56
2019-01-08T04:05:14.149Z,1001.47
2019-01-08T04:06:14.099Z,1001.45
2019-01-08T04:07:14.051Z,1001.43
2019-01-08T04:08:14.002Z,1001.44
2019-01-08T04:09:13.956Z,1001.42
2019-01-08T04:10:13.905Z,1001.37
2019-01-08T04:11:13.946Z,1001.33
2019-01-08T04:12:13.807Z,1001.28
2019-01-08T04:13:13.759Z,1001.27
2019-01-08T04:14:13.710Z,1001.19
2019-01-08T04:15:13.668Z,1001.22
2019-01-08T04:16:13.664Z,1001.20
2019-01-08T04:17:13.569Z,1001.18
2019-01-08T04:18:13.515Z,1001.14
2019-01-08T04:19:13.467Z,1001.16
2019-01-08T04:20:13.417Z,1001.17
2019-01-08T04:21:13.369Z,1001.18
2019-01-08T04:22:13.320Z,1001.13
2019-01-08T04:23:13.272Z,1001.22
2019-01-08T04:24:13.222Z,1001.18
2019-01-08T04:25:13.175Z,1001.22
2019-01-08T04:26:13.125Z,1001.16
2019-01-08T04:27:13.077Z,1001.22
2019-01-08T04:28:13.027Z,1001.20
2019-01-08T04:29:12.979Z,1001.18
2019-01-08T04:30:12.930Z,1001.23
2019-01-08T04:31:12.882Z,1001.15
2019-01-08T04:32:12.831Z,1001.12
2019-01-08T04:33:12.784Z,1001.03
2019-01-08T04:34:12.735Z,1001.02
2019-01-08T04:35:12.686Z,1001.01
2019-01-08T04:36:12.637Z,1000.95
2019-01-08T04:37:12.588Z,1000.93
2019-01-08T04:38:12.592Z,1000.98
2019-01-08T04:39:12.493Z,1000.93
2019-01-08T04:40:12.442Z,1000.86
2019-01-08T04:41:12.394Z,1000.83
2019-01-08T04:42:12.345Z,1000.77
2019-01-08T04:43:12.296Z,1000.74
2019-01-08T04:44:12.247Z,1000.71
2019-01-08T04:45:12.198Z,1000.72
2019-01-08T04:46:12.149Z,1000.65
2019-01-08T04:47:12.102Z,1000.59
2019-01-08T04:48:12.051Z,1000.58
2019-01-08T04:49:12.002Z,1000.51
2019-01-08T04:50:11.954Z,1000.52
2019-01-08T04:51:11.907Z,1000.49
2019-01-08T04:52:11.855Z,1000.45
2019-01-08T04:53:11.858Z,1000.41
2019-01-08T04:54:11.759Z,1000.39
2019-01-08T04:55:11.711Z,1000.36
2019-01-08T04:56:11.661Z,1000.25
2019-01-08T04:57:11.612Z,1000.25
2019-01-08T04:58:11.614Z,1000.24
2019-01-08T04:59:11.516Z,1000.17
2019-01-08T05:00:11.466Z,1000.07
2019-01-08T05:01:11.418Z,1000.07
2019-01-08T05:02:11.370Z,1000.03
2019-01-08T05:03:11.327Z,999.99
2019-01-08T05:04:11.273Z,1000.02
2019-01-08T05:05:11.227Z,1000.02
2019-01-08T05:06:11.174Z,999.95
2019-01-08T05:07:11.125Z,999.96
2019-01-08T05:08:11.076Z,999.92
2019-01-08T05:09:11.027Z,999.86
2019-01-08T05:10:10.978Z,999.81
2019-01-08T05:11:10.932Z,999.84
2019-01-08T05:12:10.880Z,999.85
2019-01-08T05:13:10.832Z,999.80
2019-01-08T05:14:10.784Z,999.71
2019-01-08T05:15:10.735Z,999.72
2019-01-08T05:16:10.685Z,999.65
2019-01-08T05:17:10.637Z,999.68
2019-01-08T05:18:10.588Z,999.64
2019-01-08T05:19:10.589Z,999.63
2019-01-08T05:20:10.493Z,999.67
2019-01-08T05:21:10.441Z,999.64
2019-01-08T05:22:10.399Z,999.60
2019-01-08T05:23:10.344Z,999.66
2019-01-08T05:24:10.295Z,999.69
2019-01-08T05:25:10.246Z,999.61
2019-01-08T05:26:10.198Z,999.64
2019-01-08T05:27:10.149Z,999.57
2019-01-08T05:28:10.099Z,999.60
2019-01-08T05:29:10.058Z,999.58
2019-01-08T05:30:10.004Z,999.54
2019-01-08T05:31:09.953Z,999.54
2019-01-08T05:32:09.903Z,999.56
2019-01-08T05:33:09.854Z,999.49
2019-01-08T05:34:09.807Z,999.50
2019-01-08T05:35:09.759Z,999.47
2019-01-08T05:36:09.709Z,999.45
2019-01-08T05:37:09.660Z,999.41
2019-01-08T05:38:09.615Z,999.41
2019-01-08T05:39:09.563Z,999.30
2019-01-08T05:40:09.563Z,999.32
2019-01-08T05:41:09.470Z,999.38
2019-01-08T05:42:09.415Z,999.28
2019-01-08T05:43:09.367Z,999.31
2019-01-08T05:44:09.317Z,999.24
2019-01-08T05:45:09.269Z,999.24
2019-01-08T05:46:09.220Z,999.18
2019-01-08T05:47:09.172Z,999.20
2019-01-08T05:48:09.122Z,999.13
2019-01-08T05:49:09.074Z,999.11
2019-01-08T05:50:09.024Z,999.03
2019-01-08T05:51:08.977Z,999.11
2019-01-08T05:52:08.927Z,999.05
2019-01-08T05:53:08.878Z,999.05
2019-01-08T05:54:08.830Z,999.05
2019-01-08T05:55:08.781Z,999.06
2019-01-08T05:56:08.732Z,999.08
2019-01-08T05:57:08.682Z,999.06
2019-01-08T05:58:08.634Z,999.03
2019-01-08T05:59:08.586Z,999.01
2019-01-08T06:00:16.066Z,999.06
2019-01-08T06:01:08.492Z,999.02
2019-01-08T06:02:08.439Z,999.00
2019-01-08T06:03:08.390Z,999.00
2019-01-08T06:04:08.340Z,998.89
2019-01-08T06:05:08.292Z,998.89
2019-01-08T06:06:08.256Z,998.90
2019-01-08T06:07:08.195Z,998.86
2019-01-08T06:08:08.146Z,998.84
2019-01-08T06:09:08.096Z,998.73
2019-01-08T06:10:08.048Z,998.81
2019-01-08T06:11:08.000Z,998.83
2019-01-08T06:12:07.950Z,998.80
2019-01-08T06:13:07.901Z,998.79
2019-01-08T06:14:07.852Z,998.76
2019-01-08T06:15:07.804Z,998.74
2019-01-08T06:16:07.754Z,998.70
2019-01-08T06:17:07.708Z,998.70
2019-01-08T06:18:07.657Z,998.74
2019-01-08T06:19:07.610Z,998.62
2019-01-08T06:20:07.609Z,998.63
2019-01-08T06:21:07.511Z,998.63
2019-01-08T06:22:07.462Z,998.59
2019-01-08T06:23:07.416Z,998.57
2019-01-08T06:24:07.364Z,998.54
2019-01-08T06:25:07.316Z,998.60
2019-01-08T06:26:07.267Z,998.54
2019-01-08T06:27:07.218Z,998.46
2019-01-08T06:28:07.168Z,998.41
2019-01-08T06:29:07.123Z,998.43
2019-01-08T06:30:07.071Z,998.41
2019-01-08T06:31:07.023Z,998.32
2019-01-08T06:32:06.973Z,998.25
2019-01-08T06:33:06.923Z,998.27
2019-01-08T06:34:06.879Z,998.22
2019-01-08T06:35:06.827Z,998.19
2019-01-08T06:36:06.777Z,998.17
2019-01-08T06:37:06.728Z,998.21
2019-01-08T06:38:06.681Z,998.16
2019-01-08T06:39:06.632Z,998.16
2019-01-08T06:40:06.632Z,998.07
2019-01-08T06:41:06.534Z,998.08
2019-01-08T06:42:06.485Z,998.08
2019-01-08T06:43:06.436Z,998.07
2019-01-08T06:44:06.386Z,998.02
2019-01-08T06:45:06.338Z,998.02
2019-01-08T06:46:06.290Z,998.01
2019-01-08T06:47:06.241Z,998.00
2019-01-08T06:48:06.191Z,997.92
2019-01-08T06:49:06.142Z,997.93
2019-01-08T06:50:06.093Z,997.85
2019-01-08T06:51:06.045Z,997.88
2019-01-08T06:52:05.997Z,997.88
2019-01-08T06:53:05.947Z,997.87
2019-01-08T06:54:05.899Z,997.80
2019-01-08T06:55:05.850Z,997.80
2019-01-08T06:56:05.800Z,997.88
2019-01-08T06:57:05.752Z,997.73
2019-01-08T06:58:05.703Z,997.79
2019-01-08T06:59:05.656Z,997.78
2019-01-08T07:00:05.605Z,997.68
2019-01-08T07:01:05.605Z,997.71
2019-01-08T07:02:05.508Z,997.63
2019-01-08T07:03:05.458Z,997.66
2019-01-08T07:04:05.409Z,997.62
2019-01-08T07:05:05.361Z,997.72
2019-01-08T07:06:05.312Z,997.63
2019-01-08T07:07:05.264Z,997.59
2019-01-08T07:08:05.213Z,997.59
2019-01-08T07:09:05.175Z,997.55
2019-01-08T07:10:05.115Z,997.57
2019-01-08T07:11:05.067Z,997.56
2019-01-08T07:12:05.018Z,997.56
2019-01-08T07:13:04.969Z,997.55
2019-01-08T07:14:04.928Z,997.47
2019-01-08T07:15:04.873Z,997.48
2019-01-08T07:16:04.823Z,997.39
2019-01-08T07:17:04.773Z,997.35
2019-01-08T07:18:04.725Z,997.33
2019-01-08T07:19:04.677Z,997.37
2019-01-08T07:20:04.626Z,997.29
2019-01-08T07:21:04.628Z,997.28
2019-01-08T07:22:04.580Z,997.31
2019-01-08T07:23:04.482Z,997.23
2019-01-08T07:24:04.435Z,997.17
2019-01-08T07:25:04.383Z,997.25
2019-01-08T07:26:04.334Z,997.18
2019-01-08T07:27:04.286Z,997.14
2019-01-08T07:28:04.236Z,997.09
2019-01-08T07:29:04.187Z,997.13
2019-01-08T07:30:04.138Z,997.14
2019-01-08T07:31:04.091Z,997.08
2019-01-08T07:32:04.040Z,996.97
2019-01-08T07:33:03.993Z,997.02
2019-01-08T07:34:03.944Z,996.96
2019-01-08T07:35:03.895Z,997.01
2019-01-08T07:36:03.844Z,997.02
2019-01-08T07:37:03.796Z,996.94
2019-01-08T07:38:03.752Z,996.89
2019-01-08T07:39:03.700Z,996.80
2019-01-08T07:40:03.652Z,996.79
2019-01-08T07:41:03.652Z,996.73
2019-01-08T07:42:03.552Z,996.74
2019-01-08T07:43:03.508Z,996.71
2019-01-08T07:44:03.455Z,996.69
2019-01-08T07:45:03.407Z,996.66
2019-01-08T07:46:03.361Z,996.60
2019-01-08T07:47:03.310Z,996.58
2019-01-08T07:48:03.260Z,996.57
2019-01-08T07:49:03.211Z,996.51
2019-01-08T07:50:03.165Z,996.46
2019-01-08T07:51:03.114Z,996.45
2019-01-08T07:52:03.063Z,996.45
2019-01-08T07:53:03.016Z,996.45
2019-01-08T07:54:02.968Z,996.39
2019-01-08T07:55:02.919Z,996.35
2019-01-08T07:56:02.869Z,996.29
2019-01-08T07:57:02.828Z,996.40
2019-01-08T07:58:02.773Z,996.30
2019-01-08T07:59:02.724Z,996.36
2019-01-08T08:00:02.673Z,996.36
2019-01-08T08:01:02.630Z,996.35
2019-01-08T08:02:02.576Z,996.25
2019-01-08T08:03:02.529Z,996.30
2019-01-08T08:04:02.480Z,996.28
2019-01-08T08:05:02.430Z,996.38
2019-01-08T08:06:02.381Z,996.25
2019-01-08T08:07:02.335Z,996.20
2019-01-08T08:08:02.284Z,996.16
2019-01-08T08:09:02.235Z,996.18
2019-01-08T08:10:02.186Z,996.12
2019-01-08T08:11:02.138Z,996.14
2019-01-08T08:12:02.089Z,996.06
2019-01-08T08:13:02.041Z,996.10
2019-01-08T08:14:01.992Z,996.05
2019-01-08T08:15:02.063Z,996.06
2019-01-08T08:16:01.894Z,996.04
2019-01-08T08:17:01.847Z,995.98
2019-01-08T08:18:01.797Z,996.00
2019-01-08T08:19:01.749Z,996.03
2019-01-08T08:20:01.699Z,996.00
2019-01-08T08:21:01.649Z,995.98
2019-01-08T08:22:01.652Z,996.00
2019-01-08T08:23:01.654Z,996.01
2019-01-08T08:24:01.504Z,995.91
2019-01-08T08:25:01.455Z,995.96
2019-01-08T08:26:01.406Z,995.89
2019-01-08T08:27:01.357Z,995.84
2019-01-08T08:28:01.309Z,995.92
2019-01-08T08:29:01.261Z,995.83
2019-01-08T08:30:01.212Z,995.84
2019-01-08T08:31:01.163Z,995.79
2019-01-08T08:32:01.113Z,995.85
2019-01-08T08:33:01.068Z,995.73
2019-01-08T08:34:01.016Z,995.76
2019-01-08T08:35:08.379Z,995.72
2019-01-08T08:36:00.920Z,995.59
2019-01-08T08:37:00.869Z,995.65
2019-01-08T08:38:00.821Z,995.68
2019-01-08T08:39:00.772Z,995.64
2019-01-08T08:40:00.726Z,995.53
2019-01-08T08:41:00.674Z,995.54
2019-01-08T08:42:00.625Z,995.54
2019-01-08T08:43:00.592Z,995.50
2019-01-08T08:44:00.528Z,995.48
2019-01-08T08:45:00.479Z,995.39
2019-01-08T08:46:00.430Z,995.43
2019-01-08T08:47:00.385Z,995.37
2019-01-08T08:48:00.333Z,995.37
2019-01-08T08:49:00.286Z,995.32
2019-01-08T08:50:00.235Z,995.35
2019-01-08T08:51:00.192Z,995.24
2019-01-08T08:52:00.138Z,995.27
2019-01-08T08:53:00.089Z,995.21
2019-01-08T08:54:00.041Z,995.14
2019-01-08T08:54:59.992Z,995.23
2019-01-08T08:55:59.944Z,995.13
2019-01-08T08:56:59.893Z,995.16
2019-01-08T08:57:59.846Z,995.14
2019-01-08T08:58:59.798Z,995.11
2019-01-08T08:59:59.748Z,995.04
2019-01-08T09:01:06.838Z,995.05
2019-01-08T09:01:59.650Z,994.98
2019-01-08T09:02:59.651Z,995.00
2019-01-08T09:03:59.553Z,994.96
2019-01-08T09:04:59.505Z,995.05
2019-01-08T09:05:59.454Z,994.94
2019-01-08T09:06:59.406Z,994.87
2019-01-08T09:07:59.358Z,994.86
2019-01-08T09:08:59.308Z,994.83
2019-01-08T09:09:59.261Z,994.82
2019-01-08T09:10:59.211Z,994.84
2019-01-08T09:11:59.163Z,994.78
2019-01-08T09:12:59.113Z,994.77
2019-01-08T09:13:59.065Z,994.75
2019-01-08T09:14:59.018Z,994.79
2019-01-08T09:15:58.969Z,994.77
2019-01-08T09:16:58.918Z,994.70
2019-01-08T09:17:58.871Z,994.72
2019-01-08T09:18:58.821Z,994.79
2019-01-08T09:19:58.772Z,994.74
2019-01-08T09:20:58.723Z,994.64
2019-01-08T09:21:58.676Z,994.67
2019-01-08T09:22:58.627Z,994.66
2019-01-08T09:23:58.579Z,994.62
2019-01-08T09:24:58.529Z,994.62
2019-01-08T09:25:58.483Z,994.60
2019-01-08T09:26:58.432Z,994.61
2019-01-08T09:27:58.383Z,994.56
2019-01-08T09:28:58.334Z,994.54
2019-01-08T09:29:58.288Z,994.47
2019-01-08T09:30:58.237Z,994.49
2019-01-08T09:31:58.191Z,994.37
2019-01-08T09:32:58.147Z,994.35
2019-01-08T09:33:58.090Z,994.32
2019-01-08T09:34:58.043Z,994.32
2019-01-08T09:35:57.995Z,994.27
2019-01-08T09:36:57.944Z,994.32
2019-01-08T09:37:57.897Z,994.32
2019-01-08T09:38:57.853Z,994.25
2019-01-08T09:39:57.798Z,994.17
2019-01-08T09:40:57.749Z,994.21
2019-01-08T09:41:57.705Z,994.16
2019-01-08T09:42:57.652Z,994.17
2019-01-08T09:43:57.698Z,994.16
2019-01-08T09:44:57.605Z,994.19
2019-01-08T09:45:57.505Z,994.09
2019-01-08T09:46:57.457Z,994.12
2019-01-08T09:47:57.407Z,994.05
2019-01-08T09:48:57.360Z,994.02
2019-01-08T09:49:57.312Z,994.01
2019-01-08T09:50:57.262Z,993.98
2019-01-08T09:51:57.214Z,994.04
2019-01-08T09:52:57.165Z,994.00
2019-01-08T09:53:57.116Z,994.00
2019-01-08T09:54:57.070Z,994.01
2019-01-08T09:55:57.020Z,993.96
2019-01-08T09:56:56.970Z,993.94
2019-01-08T09:57:56.922Z,994.00
2019-01-08T09:58:56.874Z,993.91
2019-01-08T09:59:56.823Z,993.91
2019-01-08T10:00:56.777Z,993.86
2019-01-08T10:01:56.727Z,993.85
2019-01-08T10:02:56.681Z,993.79
2019-01-08T10:03:56.631Z,993.79
2019-01-08T10:04:56.580Z,993.79
2019-01-08T10:05:56.632Z,993.72
2019-01-08T10:06:56.484Z,993.67
2019-01-08T10:07:56.435Z,993.64
2019-01-08T10:08:56.386Z,993.68
2019-01-08T10:09:56.338Z,993.61
2019-01-08T10:10:56.289Z,993.52
2019-01-08T10:11:56.242Z,993.55
2019-01-08T10:12:56.191Z,993.49
2019-01-08T10:13:56.144Z,993.60
2019-01-08T10:14:56.095Z,993.52
2019-01-08T10:15:56.044Z,993.45
2019-01-08T10:16:55.996Z,993.52
2019-01-08T10:17:55.949Z,993.44
2019-01-08T10:18:55.898Z,993.43
2019-01-08T10:19:55.850Z,993.45
2019-01-08T10:20:55.800Z,993.31
2019-01-08T10:21:55.753Z,993.38
2019-01-08T10:22:55.703Z,993.41
2019-01-08T10:23:55.659Z,993.29
2019-01-08T10:24:55.606Z,993.31
2019-01-08T10:25:55.558Z,993.23
2019-01-08T10:26:55.510Z,993.24
2019-01-08T10:27:55.460Z,993.18
2019-01-08T10:28:55.410Z,993.22
2019-01-08T10:29:57.009Z,993.21
2019-01-08T10:30:55.315Z,993.19
2019-01-08T10:31:55.265Z,993.17
2019-01-08T10:32:55.217Z,993.13
2019-01-08T10:33:55.169Z,993.17
2019-01-08T10:34:55.120Z,993.17
2019-01-08T10:35:55.070Z,993.05
2019-01-08T10:36:55.020Z,993.11
2019-01-08T10:37:54.973Z,993.02
2019-01-08T10:38:54.925Z,993.05
2019-01-08T10:39:54.876Z,993.05
2019-01-08T10:40:54.827Z,993.05
2019-01-08T10:41:54.780Z,993.04
2019-01-08T10:42:54.731Z,992.91
2019-01-08T10:43:54.680Z,992.97
2019-01-08T10:44:54.639Z,992.96
2019-01-08T10:45:54.583Z,992.93
2019-01-08T10:46:54.585Z,992.80
2019-01-08T10:47:54.487Z,992.90
2019-01-08T10:48:54.439Z,992.85
2019-01-08T10:49:54.390Z,992.88
2019-01-08T10:50:54.341Z,992.87
2019-01-08T10:51:54.293Z,992.90
2019-01-08T10:52:54.243Z,992.84
2019-01-08T10:53:54.196Z,992.91
2019-01-08T10:54:54.147Z,992.75
2019-01-08T10:55:54.099Z,992.74
2019-01-08T10:56:54.049Z,992.82
2019-01-08T10:57:54.003Z,992.69
2019-01-08T10:58:53.952Z,992.74
2019-01-08T10:59:53.902Z,992.69
2019-01-08T11:00:53.855Z,992.66
2019-01-08T11:01:53.804Z,992.61
2019-01-08T11:02:53.759Z,992.73
2019-01-08T11:03:53.708Z,992.73
2019-01-08T11:04:53.658Z,992.71
2019-01-08T11:05:53.613Z,992.65
2019-01-08T11:06:53.661Z,992.55
2019-01-08T11:07:53.513Z,992.65
2019-01-08T11:08:53.466Z,992.61
2019-01-08T11:09:53.416Z,992.56
2019-01-08T11:10:53.368Z,992.59
2019-01-08T11:11:53.318Z,992.56
2019-01-08T11:12:53.270Z,992.52
2019-01-08T11:13:53.221Z,992.36
2019-01-08T11:14:53.173Z,992.48
2019-01-08T11:15:53.209Z,992.45
2019-01-08T11:16:53.078Z,992.41
2019-01-08T11:17:53.030Z,992.35
2019-01-08T11:18:52.979Z,992.47
2019-01-08T11:19:52.929Z,992.49
2019-01-08T11:20:52.880Z,992.38
2019-01-08T11:21:52.832Z,992.34
2019-01-08T11:22:52.784Z,992.35
2019-01-08T11:23:52.735Z,992.24
2019-01-08T11:24:52.686Z,992.28
2019-01-08T11:25:52.636Z,992.30
2019-01-08T11:26:52.589Z,992.27
2019-01-08T11:27:52.542Z,992.26
2019-01-08T11:28:52.495Z,992.33
2019-01-08T11:29:52.448Z,992.27
2019-01-08T11:30:52.395Z,992.16
2019-01-08T11:31:52.351Z,992.18
2019-01-08T11:32:52.297Z,992.14
2019-01-08T11:33:52.248Z,992.18
2019-01-08T11:34:52.200Z,992.13
2019-01-08T11:35:52.150Z,992.12
2019-01-08T11:36:52.104Z,992.14
2019-01-08T11:37:52.054Z,992.11
2019-01-08T11:38:52.006Z,992.13
2019-01-08T11:39:51.959Z,992.08
2019-01-08T11:40:51.911Z,992.14
2019-01-08T11:41:51.859Z,992.13
2019-01-08T11:42:51.810Z,992.11
2019-01-08T11:43:51.761Z,992.09
2019-01-08T11:44:51.713Z,992.03
2019-01-08T11:45:51.664Z,992.07
2019-01-08T11:46:51.615Z,992.09
2019-01-08T11:47:51.567Z,992.06
2019-01-08T11:48:51.527Z,992.00
2019-01-08T11:49:51.470Z,992.00
2019-01-08T11:50:51.419Z,991.88
2019-01-08T11:51:51.373Z,991.98
2019-01-08T11:52:51.322Z,991.95
2019-01-08T11:53:51.275Z,991.97
2019-01-08T11:54:51.226Z,991.94
2019-01-08T11:55:51.177Z,991.94
2019-01-08T11:56:51.128Z,991.98
2019-01-08T11:57:51.082Z,992.01
2019-01-08T11:58:51.031Z,991.95
2019-01-08T11:59:50.983Z,992.04
2019-01-08T12:00:50.934Z,991.87
2019-01-08T12:01:57.127Z,991.97
2019-01-08T12:02:50.840Z,991.94
2019-01-08T12:03:50.788Z,991.91
2019-01-08T12:04:50.738Z,991.87
2019-01-08T12:05:50.691Z,991.91
2019-01-08T12:06:50.643Z,991.84
2019-01-08T12:07:50.594Z,991.84
2019-01-08T12:08:50.545Z,991.81
2019-01-08T12:09:50.499Z,991.84
2019-01-08T12:10:50.448Z,991.73
2019-01-08T12:11:50.397Z,991.78
2019-01-08T12:12:50.359Z,991.83
2019-01-08T12:13:50.302Z,991.85
2019-01-08T12:14:50.255Z,991.84
2019-01-08T12:15:50.272Z,991.84
2019-01-08T12:16:50.156Z,991.85
2019-01-08T12:17:50.108Z,991.78